Time;durP1;ratioP1;P1;durP2;ratioP2;P2;SDS_P1;SDS_P2;PMS_P1;PMS_P2;Temp;Humidity;BMP_temperature;BMP_pressure;BME280_temperature;BME280_humidity;BME280_pressure;Samples;Min_cycle;Max_cycle;Signal;HPM_P1;HPM_P2
2022/05/23 00:01:04;;;;;;;8.57;6.57;;;;;;;;;;5052461;28;20098;-39
2022/05/23 00:03:31;;;;;;;8.15;5.70;;;;;;;;;;5052215;28;20056;-39
2022/05/23 00:05:57;;;;;;;9.48;6.22;;;;;;;;;;5051997;28;20148;-39
2022/05/23 00:08:23;;;;;;;8.50;6.05;;;;;;;;;;5052105;28;20096;-39
2022/05/23 00:10:49;;;;;;;11.32;6.30;;;;;;;;;;5052081;28;20031;-39
2022/05/23 00:13:15;;;;;;;7.55;6.30;;;;;;;;;;5050487;28;20045;-39
2022/05/23 00:15:40;;;;;;;8.80;5.75;;;;;;;;;;5052048;28;20111;-42
2022/05/23 00:18:06;;;;;;;7.18;6.30;;;;;;;;;;5051978;28;20387;-40
2022/05/23 00:20:31;;;;;;;10.10;6.05;;;;;;;;;;5051779;28;20629;-40
2022/05/23 00:22:56;;;;;;;9.88;5.40;;;;;;;;;;5050674;28;20100;-39
2022/05/23 00:25:22;;;;;;;7.72;5.07;;;;;;;;;;5052283;28;20029;-39
2022/05/23 00:27:50;;;;;;;7.38;4.68;;;;;;;;;;5052064;28;20451;-39
2022/05/23 00:30:21;;;;;;;7.75;5.32;;;;;;;;;;5051867;28;20047;-40
2022/05/23 00:35:30;;;;;;;5.60;5.03;;;;;;;;;;5051855;28;20021;-39
2022/05/23 00:37:56;;;;;;;11.65;5.25;;;;;;;;;;5051201;28;20368;-40
2022/05/23 00:40:31;;;;;;;16.15;5.32;;;;;;;;;;5051531;28;20056;-39
2022/05/23 00:43:15;;;;;;;10.65;5.38;;;;;;;;;;5051675;28;20111;-39
2022/05/23 00:45:42;;;;;;;12.63;5.28;;;;;;;;;;5051442;28;20024;-39
2022/05/23 00:48:08;;;;;;;9.18;4.75;;;;;;;;;;5051381;28;20017;-39
2022/05/23 00:50:34;;;;;;;5.85;4.88;;;;;;;;;;5051478;28;20025;-39
2022/05/23 00:53:00;;;;;;;7.40;4.93;;;;;;;;;;5049860;28;20032;-39
2022/05/23 00:55:35;;;;;;;4.75;4.00;;;;;;;;;;5051408;28;20108;-39
2022/05/23 00:58:03;;;;;;;7.43;4.90;;;;;;;;;;5051498;28;20021;-39
2022/05/23 01:00:29;;;;;;;8.77;5.38;;;;;;;;;;5050175;28;20055;-39
2022/05/23 01:02:57;;;;;;;10.32;5.63;;;;;;;;;;5051391;28;20037;-39
2022/05/23 01:05:23;;;;;;;6.78;4.75;;;;;;;;;;5051118;28;20017;-40
2022/05/23 01:07:48;;;;;;;6.63;4.43;;;;;;;;;;5049965;28;20033;-39
2022/05/23 01:10:14;;;;;;;7.50;4.93;;;;;;;;;;5049700;28;20589;-40
2022/05/23 01:12:41;;;;;;;10.38;5.90;;;;;;;;;;5049848;28;20033;-39
2022/05/23 01:15:15;;;;;;;5.43;4.80;;;;;;;;;;5051281;28;20162;-39
2022/05/23 01:17:42;;;;;;;8.65;6.20;;;;;;;;;;5049844;28;20037;-39
2022/05/23 01:20:09;;;;;;;6.20;5.00;;;;;;;;;;5049728;28;20035;-39
2022/05/23 01:22:38;;;;;;;7.75;5.65;;;;;;;;;;5049698;28;20032;-40
2022/05/23 01:25:23;;;;;;;7.30;5.10;;;;;;;;;;5049726;28;20044;-40
2022/05/23 01:27:49;;;;;;;6.78;4.70;;;;;;;;;;5051091;28;20145;-39
2022/05/23 01:30:16;;;;;;;6.90;5.20;;;;;;;;;;5049585;28;20029;-40
2022/05/23 01:32:53;;;;;;;5.75;4.60;;;;;;;;;;5049712;28;20029;-40
2022/05/23 01:35:19;;;;;;;13.85;5.30;;;;;;;;;;5049728;28;20028;-39
2022/05/23 01:37:45;;;;;;;9.55;5.05;;;;;;;;;;5049492;28;20033;-40
2022/05/23 01:40:26;;;;;;;10.35;6.75;;;;;;;;;;5049624;28;20025;-40
2022/05/23 01:42:58;;;;;;;5.15;4.30;;;;;;;;;;5049494;28;20029;-40
2022/05/23 01:45:28;;;;;;;6.60;4.47;;;;;;;;;;5050972;28;20048;-39
2022/05/23 01:47:57;;;;;;;8.45;6.07;;;;;;;;;;5049429;28;20068;-39
2022/05/23 01:50:23;;;;;;;5.57;4.65;;;;;;;;;;5050225;28;20102;-43
2022/05/23 01:52:52;;;;;;;5.65;4.75;;;;;;;;;;5054823;28;20052;-39
2022/05/23 01:55:28;;;;;;;9.35;5.10;;;;;;;;;;5053448;28;20020;-39
2022/05/23 01:58:12;;;;;;;14.60;4.40;;;;;;;;;;5053119;28;20513;-40
2022/05/23 02:03:32;;;;;;;5.63;4.43;;;;;;;;;;5053224;28;20033;-39
2022/05/23 02:05:58;;;;;;;8.00;4.65;;;;;;;;;;5053009;28;20032;-39
2022/05/23 02:08:23;;;;;;;7.85;4.43;;;;;;;;;;5054657;28;20021;-40
2022/05/23 02:10:50;;;;;;;8.23;4.78;;;;;;;;;;5053101;28;20040;-39
2022/05/23 02:13:23;;;;;;;8.65;4.55;;;;;;;;;;5052746;28;20139;-39
2022/05/23 02:15:48;;;;;;;8.40;4.50;;;;;;;;;;5053027;28;20163;-40
2022/05/23 02:18:32;;;;;;;4.25;3.72;;;;;;;;;;5054310;28;20162;-40
2022/05/23 02:20:58;;;;;;;6.80;4.40;;;;;;;;;;5054133;28;20112;-39
2022/05/23 02:23:23;;;;;;;5.85;4.47;;;;;;;;;;5052832;28;20427;-39
2022/05/23 02:25:49;;;;;;;6.25;4.13;;;;;;;;;;5052791;28;20025;-40
2022/05/23 02:28:33;;;;;;;5.03;4.03;;;;;;;;;;5054245;28;20411;-39
2022/05/23 02:30:58;;;;;;;4.53;3.45;;;;;;;;;;5052624;28;20025;-40
2022/05/23 02:33:43;;;;;;;5.07;3.92;;;;;;;;;;5052528;28;20021;-39
2022/05/23 02:36:25;;;;;;;4.50;3.85;;;;;;;;;;5052667;28;20037;-39
2022/05/23 02:38:51;;;;;;;5.13;4.13;;;;;;;;;;5052430;28;20056;-39
2022/05/23 02:41:17;;;;;;;4.93;3.75;;;;;;;;;;5052390;28;20021;-40
2022/05/23 02:43:42;;;;;;;4.93;4.00;;;;;;;;;;5053698;28;20108;-39
2022/05/23 02:46:11;;;;;;;7.13;4.28;;;;;;;;;;5052354;28;20020;-39
2022/05/23 02:48:37;;;;;;;4.75;4.07;;;;;;;;;;5052226;28;20111;-39
2022/05/23 02:51:05;;;;;;;5.43;3.88;;;;;;;;;;5053486;28;20463;-39
2022/05/23 02:53:31;;;;;;;5.90;4.47;;;;;;;;;;5052361;28;20032;-39
2022/05/23 02:55:58;;;;;;;4.32;3.92;;;;;;;;;;5052043;28;20041;-39
2022/05/23 02:58:23;;;;;;;6.80;3.60;;;;;;;;;;5052190;28;20072;-39
2022/05/23 03:00:49;;;;;;;5.72;4.03;;;;;;;;;;5053327;28;20021;-39
2022/05/23 03:03:16;;;;;;;5.68;4.07;;;;;;;;;;5051840;28;20041;-40
2022/05/23 03:05:55;;;;;;;5.13;4.63;;;;;;;;;;5052049;28;20086;-39
2022/05/23 03:08:24;;;;;;;5.60;4.10;;;;;;;;;;5051924;28;20025;-39
2022/05/23 03:10:50;;;;;;;5.25;4.03;;;;;;;;;;5051962;28;20055;-39
2022/05/23 03:13:16;;;;;;;6.43;4.20;;;;;;;;;;5051518;28;20045;-39
2022/05/23 03:15:42;;;;;;;9.05;4.10;;;;;;;;;;5053441;28;20043;-39
2022/05/23 03:18:07;;;;;;;5.80;4.28;;;;;;;;;;5052896;28;20106;-39
2022/05/23 03:20:36;;;;;;;4.80;4.25;;;;;;;;;;5051802;28;20064;-39
2022/05/23 03:28:31;;;;;;;6.47;3.90;;;;;;;;;;5051536;28;20033;-39
2022/05/23 03:30:57;;;;;;;5.38;3.70;;;;;;;;;;5051393;28;20391;-39
2022/05/23 03:33:23;;;;;;;5.75;3.80;;;;;;;;;;5051542;28;20111;-39
2022/05/23 03:35:48;;;;;;;4.07;3.67;;;;;;;;;;5052721;28;20104;-40
2022/05/23 03:38:14;;;;;;;4.75;3.85;;;;;;;;;;5051188;28;20517;-39
2022/05/23 03:40:40;;;;;;;13.57;4.22;;;;;;;;;;5052590;28;20021;-39
2022/05/23 03:43:07;;;;;;;5.40;4.40;;;;;;;;;;5051337;28;20035;-39
2022/05/23 03:45:33;;;;;;;4.50;3.42;;;;;;;;;;5051275;28;20021;-39
2022/05/23 03:48:03;;;;;;;13.73;3.60;;;;;;;;;;5051079;28;20025;-38
2022/05/23 03:50:29;;;;;;;3.95;3.55;;;;;;;;;;5051210;28;20028;-39
2022/05/23 03:52:58;;;;;;;8.30;4.18;;;;;;;;;;5052275;28;20021;-39
2022/05/23 03:55:28;;;;;;;6.65;4.53;;;;;;;;;;5051127;28;20036;-39
2022/05/23 03:58:29;;;;;;;11.15;3.97;;;;;;;;;;5051694;28;20103;-39
2022/05/23 04:01:17;;;;;;;6.65;3.80;;;;;;;;;;5052508;28;20122;-39
2022/05/23 04:03:46;;;;;;;3.95;3.15;;;;;;;;;;5050987;28;20363;-39
2022/05/23 04:06:12;;;;;;;3.70;3.40;;;;;;;;;;5050636;28;20074;-39
2022/05/23 04:08:57;;;;;;;9.82;4.70;;;;;;;;;;5050756;28;20098;-39
2022/05/23 04:11:22;;;;;;;6.22;3.50;;;;;;;;;;5050829;28;20459;-39
2022/05/23 04:13:48;;;;;;;5.03;3.45;;;;;;;;;;5050049;28;20049;-39
2022/05/23 04:16:14;;;;;;;3.83;3.45;;;;;;;;;;5051897;28;20024;-39
2022/05/23 04:18:43;;;;;;;4.75;3.95;;;;;;;;;;5050583;28;20047;-39
2022/05/23 04:21:09;;;;;;;4.68;4.07;;;;;;;;;;5050481;28;20021;-39
2022/05/23 04:23:37;;;;;;;5.60;4.15;;;;;;;;;;5050579;28;20036;-39
2022/05/23 04:26:08;;;;;;;4.38;3.70;;;;;;;;;;5050537;28;20115;-39
2022/05/23 04:28:39;;;;;;;12.65;3.60;;;;;;;;;;5049843;28;20033;-40
2022/05/23 04:31:05;;;;;;;5.88;3.78;;;;;;;;;;5051744;28;20503;-40
2022/05/23 04:36:35;;;;;;;5.72;4.32;;;;;;;;;;5050363;28;20068;-39
2022/05/23 04:39:01;;;;;;;8.25;3.90;;;;;;;;;;5050147;28;20098;-39
2022/05/23 04:41:28;;;;;;;9.45;4.18;;;;;;;;;;5050307;28;20032;-39
2022/05/23 04:43:58;;;;;;;6.25;4.68;;;;;;;;;;5051421;28;20458;-39
2022/05/23 04:46:24;;;;;;;6.03;4.47;;;;;;;;;;5050382;28;20482;-39
2022/05/23 04:52:19;;;;;;;7.75;4.22;;;;;;;;;;5050083;28;20033;-39
2022/05/23 04:54:45;;;;;;;4.30;3.72;;;;;;;;;;5051434;28;20119;-39
2022/05/23 04:57:13;;;;;;;4.88;4.18;;;;;;;;;;5049917;28;20040;-39
2022/05/23 04:59:38;;;;;;;6.97;4.30;;;;;;;;;;5049995;28;20040;-39
2022/05/23 05:02:08;;;;;;;5.55;3.63;;;;;;;;;;5049840;28;20013;-40
2022/05/23 05:04:33;;;;;;;9.88;5.32;;;;;;;;;;5049970;28;20032;-39
2022/05/23 05:06:59;;;;;;;4.90;4.18;;;;;;;;;;5051080;28;20467;-39
2022/05/23 05:09:25;;;;;;;5.57;3.50;;;;;;;;;;5049850;28;20036;-39
2022/05/23 05:12:00;;;;;;;4.38;3.47;;;;;;;;;;5049772;28;20013;-39
2022/05/23 05:14:30;;;;;;;4.13;3.58;;;;;;;;;;5050969;28;20141;-39
2022/05/23 05:17:01;;;;;;;4.90;3.72;;;;;;;;;;5049707;28;20029;-39
2022/05/23 05:19:27;;;;;;;5.55;3.83;;;;;;;;;;5049589;28;20049;-39
2022/05/23 05:21:53;;;;;;;7.22;4.35;;;;;;;;;;5051485;28;20513;-40
2022/05/23 05:24:48;;;;;;;5.32;4.18;;;;;;;;;;5066455;28;20032;-40
2022/05/23 05:27:34;;;;;;;4.90;3.58;;;;;;;;;;5055054;28;20112;-39
2022/05/23 05:30:00;;;;;;;6.10;3.72;;;;;;;;;;5055094;28;20452;-39
2022/05/23 05:32:33;;;;;;;4.70;3.63;;;;;;;;;;5055227;28;20421;-38
2022/05/23 05:35:05;;;;;;;6.72;4.47;;;;;;;;;;5054977;28;20029;-39
2022/05/23 05:37:33;;;;;;;4.32;3.65;;;;;;;;;;5053629;28;20029;-39
2022/05/23 05:40:02;;;;;;;5.60;4.50;;;;;;;;;;5053484;28;20025;-39
2022/05/23 05:42:30;;;;;;;9.73;4.30;;;;;;;;;;5054959;28;20487;-40
2022/05/23 05:45:04;;;;;;;4.50;3.65;;;;;;;;;;5053459;28;20438;-39
2022/05/23 05:47:30;;;;;;;10.60;4.03;;;;;;;;;;5053591;28;20079;-39
2022/05/23 05:50:06;;;;;;;9.15;4.65;;;;;;;;;;5053299;28;20064;-39
2022/05/23 05:52:40;;;;;;;3.83;3.42;;;;;;;;;;5053411;28;20025;-39
2022/05/23 05:55:07;;;;;;;4.25;3.85;;;;;;;;;;5054532;28;20063;-39
2022/05/23 05:57:34;;;;;;;8.18;4.05;;;;;;;;;;5053299;28;20009;-39
2022/05/23 06:00:05;;;;;;;6.88;3.17;;;;;;;;;;5052883;28;20128;-39
2022/05/23 06:02:42;;;;;;;5.07;4.00;;;;;;;;;;5054518;28;20066;-40
2022/05/23 06:05:10;;;;;;;4.80;4.07;;;;;;;;;;5053066;28;20033;-39
2022/05/23 06:14:01;;;;;;;7.93;3.40;;;;;;;;;;5058683;28;20049;-39
2022/05/23 06:16:37;;;;;;;7.18;4.00;;;;;;;;;;5014786;28;20042;-39
2022/05/23 06:19:08;;;;;;;7.50;3.50;;;;;;;;;;5013048;28;20069;-39
2022/05/23 06:21:44;;;;;;;6.75;3.80;;;;;;;;;;5013201;28;20286;-39
2022/05/23 06:24:12;;;;;;;4.88;3.65;;;;;;;;;;5013173;28;20045;-39
2022/05/23 06:26:44;;;;;;;8.32;3.30;;;;;;;;;;5013151;28;20104;-40
2022/05/23 06:29:30;;;;;;;4.82;3.42;;;;;;;;;;5012883;28;20034;-40
2022/05/23 06:32:05;;;;;;;5.85;3.50;;;;;;;;;;5012952;28;20117;-39
2022/05/23 06:34:32;;;;;;;5.97;3.72;;;;;;;;;;5012868;28;20500;-39
2022/05/23 06:36:59;;;;;;;3.55;3.25;;;;;;;;;;5012296;28;20080;-39
2022/05/23 06:39:26;;;;;;;4.00;3.60;;;;;;;;;;5012701;28;20103;-39
2022/05/23 06:42:13;;;;;;;7.97;3.65;;;;;;;;;;5014323;28;20575;-39
2022/05/23 06:45:15;;;;;;;9.52;3.45;;;;;;;;;;5051248;28;20032;-39
2022/05/23 06:47:44;;;;;;;4.13;3.40;;;;;;;;;;5020860;28;20041;-39
2022/05/23 06:50:44;;;;;;;4.45;2.97;;;;;;;;;;5016875;28;20017;-39
2022/05/23 06:53:15;;;;;;;6.38;3.50;;;;;;;;;;5012598;28;20030;-39
2022/05/23 06:55:55;;;;;;;5.65;3.75;;;;;;;;;;5012531;28;20033;-39
2022/05/23 06:58:22;;;;;;;6.60;3.65;;;;;;;;;;5012376;28;20042;-39
2022/05/23 07:00:52;;;;;;;4.85;3.17;;;;;;;;;;5014121;28;20108;-40
2022/05/23 07:03:31;;;;;;;6.68;3.05;;;;;;;;;;5013723;28;20030;-39
2022/05/23 07:14:30;;;;;;;7.25;3.20;;;;;;;;;;5048223;28;20055;-39
2022/05/23 07:17:00;;;;;;;4.45;3.80;;;;;;;;;;5051833;28;20119;-41
2022/05/23 07:19:46;;;;;;;3.40;2.83;;;;;;;;;;5052760;28;20029;-39
2022/05/23 07:22:16;;;;;;;12.68;3.47;;;;;;;;;;5051619;28;20123;-39
2022/05/23 07:24:44;;;;;;;5.63;3.47;;;;;;;;;;5051726;28;20104;-39
2022/05/23 07:27:15;;;;;;;3.88;3.15;;;;;;;;;;5051667;28;20040;-40
2022/05/23 07:29:41;;;;;;;6.03;3.28;;;;;;;;;;5051510;28;20445;-39
2022/05/23 07:32:15;;;;;;;3.60;2.88;;;;;;;;;;5052840;28;20025;-39
2022/05/23 07:34:43;;;;;;;;;;;;;;;;;;5051905;28;20152;-39
2022/05/23 07:37:10;;;;;;;4.13;3.03;;;;;;;;;;5052748;28;19904;-39
2022/05/23 07:39:39;;;;;;;5.50;3.33;;;;;;;;;;5052519;28;20477;-39
2022/05/23 07:42:28;;;;;;;4.57;2.63;;;;;;;;;;5053040;28;20025;-39
2022/05/23 07:44:55;;;;;;;8.23;3.50;;;;;;;;;;5051233;28;20040;-40
2022/05/23 07:47:22;;;;;;;5.68;3.75;;;;;;;;;;5050826;28;20035;-39
2022/05/23 07:50:06;;;;;;;3.47;2.97;;;;;;;;;;5052229;28;20060;-40
2022/05/23 07:52:31;;;;;;;5.03;3.10;;;;;;;;;;5052828;28;20067;-40
2022/05/23 08:00:37;;;;;;;5.32;3.10;;;;;;;;;;5051080;28;20403;-40
2022/05/23 08:03:21;;;;;;;5.63;3.00;;;;;;;;;;5036967;28;20021;-39
2022/05/23 08:06:11;;;;;;;6.55;4.28;;;;;;;;;;5051957;28;20029;-39
2022/05/23 08:08:37;;;;;;;6.30;3.42;;;;;;;;;;5050839;28;20029;-40
2022/05/23 08:11:08;;;;;;;7.72;3.75;;;;;;;;;;5050743;28;20032;-40
2022/05/23 08:13:41;;;;;;;5.55;2.85;;;;;;;;;;5050787;28;20052;-39
2022/05/23 08:16:07;;;;;;;4.72;3.22;;;;;;;;;;5051954;28;20036;-39
2022/05/23 08:18:33;;;;;;;9.38;3.22;;;;;;;;;;5050616;28;20442;-40
2022/05/23 08:20:58;;;;;;;6.95;3.78;;;;;;;;;;5050682;28;20040;-39
2022/05/23 08:23:30;;;;;;;5.38;2.95;;;;;;;;;;5050495;28;20032;-40
2022/05/23 08:26:11;;;;;;;6.05;3.40;;;;;;;;;;5050571;28;20036;-39
2022/05/23 08:28:42;;;;;;;5.50;3.45;;;;;;;;;;5050426;28;20040;-39
2022/05/23 08:31:08;;;;;;;6.28;3.75;;;;;;;;;;5050441;28;20538;-39
2022/05/23 08:33:41;;;;;;;6.40;3.35;;;;;;;;;;5050386;28;20028;-39
2022/05/23 08:36:18;;;;;;;13.10;3.75;;;;;;;;;;5050361;28;20458;-40
2022/05/23 08:38:44;;;;;;;10.93;3.00;;;;;;;;;;5050167;28;20041;-39
2022/05/23 08:41:24;;;;;;;4.45;3.35;;;;;;;;;;5050374;28;20021;-39
2022/05/23 08:44:16;;;;;;;6.97;3.03;;;;;;;;;;5050148;28;20029;-39
2022/05/23 08:47:01;;;;;;;3.42;2.95;;;;;;;;;;5050217;28;20044;-39
2022/05/23 08:49:30;;;;;;;9.13;3.28;;;;;;;;;;5050173;28;20032;-39
2022/05/23 08:52:16;;;;;;;14.85;4.03;;;;;;;;;;5051342;28;20061;-39
2022/05/23 08:54:52;;;;;;;4.80;4.07;;;;;;;;;;5050209;28;20040;-39
2022/05/23 08:57:36;;;;;;;3.92;3.15;;;;;;;;;;5051236;28;20094;-40
2022/05/23 09:00:06;;;;;;;4.60;2.83;;;;;;;;;;5049661;28;20032;-39
2022/05/23 09:02:37;;;;;;;4.28;3.00;;;;;;;;;;5050135;28;20029;-39
2022/05/23 09:05:34;;;;;;;6.78;3.58;;;;;;;;;;5049754;28;20032;-39
2022/05/23 09:08:02;;;;;;;5.93;3.00;;;;;;;;;;5050675;28;20041;-39
2022/05/23 09:10:30;;;;;;;2.70;2.28;;;;;;;;;;5051519;28;20039;-39
2022/05/23 09:12:56;;;;;;;5.65;2.85;;;;;;;;;;5051244;28;20052;-39
2022/05/23 09:15:23;;;;;;;7.45;2.83;;;;;;;;;;5051146;28;20096;-39
2022/05/23 09:17:53;;;;;;;5.88;3.70;;;;;;;;;;5051100;28;20033;-39
2022/05/23 09:20:38;;;;;;;3.90;3.25;;;;;;;;;;5049626;28;20049;-39
2022/05/23 09:23:06;;;;;;;5.32;3.03;;;;;;;;;;5050898;28;20045;-40
2022/05/23 09:25:31;;;;;;;3.17;2.85;;;;;;;;;;5051208;28;20021;-40
2022/05/23 09:28:15;;;;;;;14.80;3.00;;;;;;;;;;5051089;28;20482;-40
2022/05/23 09:30:42;;;;;;;9.23;3.00;;;;;;;;;;5051295;28;20024;-40
2022/05/23 09:33:08;;;;;;;8.90;3.20;;;;;;;;;;5051184;28;20021;-39
2022/05/23 09:35:49;;;;;;;4.25;2.85;;;;;;;;;;5051148;28;20033;-40
2022/05/23 09:38:22;;;;;;;3.87;3.13;;;;;;;;;;5049579;28;20487;-39
2022/05/23 09:49:53;;;;;;;13.18;3.42;;;;;;;;;;5051103;28;20029;-41
2022/05/23 09:52:25;;;;;;;7.13;3.53;;;;;;;;;;5050907;28;20379;-40
2022/05/23 09:54:55;;;;;;;11.20;2.83;;;;;;;;;;5050774;28;20060;-38
2022/05/23 09:57:32;;;;;;;4.88;3.25;;;;;;;;;;5050502;28;20032;-39
2022/05/23 09:59:58;;;;;;;9.52;3.08;;;;;;;;;;5050570;28;20057;-39
2022/05/23 10:02:32;;;;;;;6.45;2.72;;;;;;;;;;5050665;28;20017;-38
2022/05/23 10:04:57;;;;;;;2.70;2.50;;;;;;;;;;5050688;28;20048;-39
2022/05/23 10:07:34;;;;;;;2.88;2.50;;;;;;;;;;5050867;28;20021;-39
2022/05/23 10:10:01;;;;;;;4.40;3.50;;;;;;;;;;5050563;28;20031;-39
2022/05/23 10:12:34;;;;;;;7.97;4.65;;;;;;;;;;5053055;28;20025;-40
2022/05/23 10:15:12;;;;;;;6.72;4.30;;;;;;;;;;5054652;28;20040;-39
2022/05/23 10:17:38;;;;;;;5.07;3.67;;;;;;;;;;5054180;28;20383;-39
2022/05/23 10:20:23;;;;;;;4.03;3.05;;;;;;;;;;5054247;28;20467;-39
2022/05/23 10:22:54;;;;;;;14.25;6.45;;;;;;;;;;5054226;28;20483;-40
2022/05/23 10:25:20;;;;;;;10.48;4.55;;;;;;;;;;5053960;28;20029;-39
2022/05/23 10:27:47;;;;;;;6.88;3.95;;;;;;;;;;5054120;28;20056;-39
2022/05/23 10:30:14;;;;;;;7.57;4.13;;;;;;;;;;5054021;28;20052;-39
2022/05/23 10:32:42;;;;;;;5.40;3.90;;;;;;;;;;5052492;28;20029;-39
2022/05/23 10:35:08;;;;;;;10.13;4.55;;;;;;;;;;5054016;28;20333;-39
2022/05/23 10:37:36;;;;;;;6.35;3.83;;;;;;;;;;5053800;28;20017;-40
2022/05/23 10:42:52;;;;;;;5.43;3.63;;;;;;;;;;5053729;28;20116;-40
2022/05/23 10:45:27;;;;;;;6.45;4.15;;;;;;;;;;5053895;28;20052;-39
2022/05/23 10:48:32;;;;;;;12.20;3.92;;;;;;;;;;5053899;28;20025;-39
2022/05/23 10:51:10;;;;;;;7.88;3.33;;;;;;;;;;5051054;28;20033;-39
2022/05/23 10:53:54;;;;;;;6.50;2.63;;;;;;;;;;5051043;28;20953;-39
2022/05/23 10:56:45;;;;;;;3.60;3.13;;;;;;;;;;5052648;28;20136;-40
2022/05/23 10:59:16;;;;;;;6.78;3.30;;;;;;;;;;5053525;28;20532;-40
2022/05/23 11:01:47;;;;;;;5.20;3.80;;;;;;;;;;5053571;28;20127;-39
2022/05/23 11:04:32;;;;;;;4.25;3.85;;;;;;;;;;5053572;28;20067;-40
2022/05/23 11:06:57;;;;;;;4.82;3.50;;;;;;;;;;5053264;28;20036;-39
2022/05/23 11:09:42;;;;;;;7.35;3.58;;;;;;;;;;5053449;28;20021;-39
2022/05/23 11:12:10;;;;;;;5.90;3.70;;;;;;;;;;5053091;28;20039;-39
2022/05/23 11:14:42;;;;;;;7.03;3.25;;;;;;;;;;5053151;28;20049;-40
2022/05/23 11:17:16;;;;;;;6.32;4.75;;;;;;;;;;5053157;28;20025;-39
2022/05/23 11:19:53;;;;;;;8.07;3.85;;;;;;;;;;5052947;28;20487;-39
2022/05/23 11:22:21;;;;;;;5.68;3.65;;;;;;;;;;5052651;28;20540;-39
2022/05/23 11:24:52;;;;;;;7.00;3.70;;;;;;;;;;5053378;28;20078;-39
2022/05/23 11:35:42;;;;;;;8.02;3.97;;;;;;;;;;5052666;28;20040;-40
2022/05/23 11:38:09;;;;;;;10.43;3.75;;;;;;;;;;5052966;28;20043;-40
2022/05/23 11:40:55;;;;;;;7.30;3.67;;;;;;;;;;5052743;28;20029;-40
2022/05/23 11:43:23;;;;;;;6.18;3.35;;;;;;;;;;5051205;28;20033;-40
2022/05/23 11:46:04;;;;;;;6.63;5.00;;;;;;;;;;5052601;28;20478;-40
2022/05/23 11:48:44;;;;;;;4.43;4.03;;;;;;;;;;5052916;28;20360;-40
2022/05/23 11:51:10;;;;;;;5.47;4.25;;;;;;;;;;5051172;28;20490;-40
2022/05/23 11:53:59;;;;;;;7.32;3.80;;;;;;;;;;5052456;28;20017;-40
2022/05/23 11:56:40;;;;;;;5.93;4.15;;;;;;;;;;5052341;28;20361;-40
2022/05/23 11:59:29;;;;;;;4.78;3.50;;;;;;;;;;5052075;28;20583;-40
2022/05/23 12:02:06;;;;;;;9.60;3.83;;;;;;;;;;5050976;28;20051;-41
2022/05/23 12:04:32;;;;;;;10.57;3.60;;;;;;;;;;5052351;28;20082;-39
2022/05/23 12:06:58;;;;;;;8.40;3.67;;;;;;;;;;5051959;28;20374;-40
2022/05/23 12:09:25;;;;;;;5.13;3.72;;;;;;;;;;5052052;28;20029;-40
2022/05/23 12:11:53;;;;;;;5.35;4.68;;;;;;;;;;5051802;28;20025;-40
2022/05/23 12:14:25;;;;;;;4.82;3.38;;;;;;;;;;5051773;28;20052;-39
2022/05/23 12:17:00;;;;;;;4.00;3.10;;;;;;;;;;5051980;28;20048;-40
2022/05/23 12:19:41;;;;;;;7.25;3.97;;;;;;;;;;5051681;28;20045;-40
2022/05/23 12:22:26;;;;;;;6.57;3.53;;;;;;;;;;5051942;28;20132;-40
2022/05/23 12:24:58;;;;;;;7.68;3.13;;;;;;;;;;5051911;28;20036;-40
2022/05/23 12:27:34;;;;;;;6.95;4.30;;;;;;;;;;5051683;28;20044;-40
2022/05/23 12:30:22;;;;;;;8.02;3.65;;;;;;;;;;5052206;28;20033;-41
2022/05/23 12:32:59;;;;;;;5.25;2.88;;;;;;;;;;5051746;28;20846;-40
2022/05/23 12:35:40;;;;;;;4.35;3.53;;;;;;;;;;5051172;28;20496;-40
2022/05/23 12:38:09;;;;;;;7.85;4.00;;;;;;;;;;5051433;28;20040;-40
2022/05/23 12:41:03;;;;;;;6.85;4.00;;;;;;;;;;5051853;28;20025;-40
2022/05/23 12:43:38;;;;;;;6.60;3.67;;;;;;;;;;5050542;28;20098;-40
2022/05/23 12:46:16;;;;;;;5.32;3.75;;;;;;;;;;5050242;28;20060;-40
2022/05/23 12:49:05;;;;;;;4.78;3.40;;;;;;;;;;5051458;28;20098;-40
2022/05/23 12:51:34;;;;;;;6.05;3.35;;;;;;;;;;5051463;28;20041;-40
2022/05/23 12:54:13;;;;;;;6.22;3.70;;;;;;;;;;5051306;28;20467;-39
2022/05/23 12:56:38;;;;;;;12.77;3.95;;;;;;;;;;5051566;28;20029;-40
2022/05/23 12:59:33;;;;;;;9.18;3.65;;;;;;;;;;5051056;28;20082;-40
2022/05/23 13:02:10;;;;;;;6.82;2.90;;;;;;;;;;5051239;28;20461;-40
2022/05/23 13:04:56;;;;;;;8.77;3.58;;;;;;;;;;5051612;28;20033;-40
2022/05/23 13:07:40;;;;;;;4.97;3.15;;;;;;;;;;5050459;28;20037;-40
2022/05/23 13:10:08;;;;;;;4.25;3.28;;;;;;;;;;5051053;28;20044;-40
2022/05/23 13:12:47;;;;;;;9.32;3.42;;;;;;;;;;5050062;28;20017;-40
2022/05/23 13:15:27;;;;;;;8.25;3.28;;;;;;;;;;5051024;28;20041;-40
2022/05/23 13:17:53;;;;;;;8.40;3.97;;;;;;;;;;5051336;28;20044;-41
2022/05/23 13:23:09;;;;;;;3.97;3.40;;;;;;;;;;5051132;28;20021;-40
2022/05/23 13:25:36;;;;;;;6.90;3.45;;;;;;;;;;5051099;28;20025;-40
2022/05/23 13:28:06;;;;;;;7.25;3.67;;;;;;;;;;5051123;28;20477;-40
2022/05/23 13:30:35;;;;;;;3.65;3.35;;;;;;;;;;5051016;28;20058;-40
2022/05/23 13:33:20;;;;;;;8.45;3.50;;;;;;;;;;5051374;28;20480;-40
2022/05/23 13:35:47;;;;;;;7.97;3.65;;;;;;;;;;5050883;28;20029;-40
2022/05/23 13:38:14;;;;;;;12.55;3.40;;;;;;;;;;5050871;28;20032;-39
2022/05/23 13:40:45;;;;;;;7.13;3.47;;;;;;;;;;5050896;28;20126;-40
2022/05/23 13:43:13;;;;;;;11.73;4.35;;;;;;;;;;5050858;28;20035;-40
2022/05/23 13:45:41;;;;;;;14.82;3.60;;;;;;;;;;5051107;28;20036;-40
2022/05/23 13:48:08;;;;;;;10.68;3.95;;;;;;;;;;5054659;28;20383;-40
2022/05/23 13:50:36;;;;;;;6.60;3.50;;;;;;;;;;5054857;28;20036;-39
2022/05/23 13:53:10;;;;;;;9.70;3.38;;;;;;;;;;5054652;28;20028;-40
2022/05/23 13:55:37;;;;;;;7.38;3.45;;;;;;;;;;5054774;28;20395;-40
2022/05/23 13:58:12;;;;;;;4.57;4.05;;;;;;;;;;5054450;28;20100;-40
2022/05/23 14:00:39;;;;;;;11.45;4.25;;;;;;;;;;5054731;28;20483;-40
2022/05/23 14:03:08;;;;;;;5.68;4.20;;;;;;;;;;5054416;28;20017;-40
2022/05/23 14:05:36;;;;;;;6.57;4.70;;;;;;;;;;5054618;28;20031;-40
2022/05/23 14:08:03;;;;;;;8.77;4.72;;;;;;;;;;5054459;28;20043;-40
2022/05/23 14:10:29;;;;;;;6.75;5.35;;;;;;;;;;5054607;28;20036;-40
2022/05/23 14:12:58;;;;;;;16.05;4.82;;;;;;;;;;5054341;28;20075;-40
2022/05/23 14:15:25;;;;;;;8.70;4.88;;;;;;;;;;5054561;28;20450;-40
2022/05/23 14:17:51;;;;;;;10.27;5.05;;;;;;;;;;5054133;28;20032;-40
2022/05/23 14:20:20;;;;;;;8.20;5.20;;;;;;;;;;5054140;28;20029;-40
2022/05/23 14:23:03;;;;;;;8.65;5.32;;;;;;;;;;5054310;28;20021;-40
2022/05/23 14:25:33;;;;;;;7.15;5.28;;;;;;;;;;5053926;28;20430;-39
2022/05/23 14:28:06;;;;;;;12.35;5.07;;;;;;;;;;5054159;28;20052;-40
2022/05/23 14:30:35;;;;;;;6.53;4.93;;;;;;;;;;5054296;28;20418;-40
2022/05/23 14:33:17;;;;;;;5.38;4.72;;;;;;;;;;5054041;28;20017;-39
2022/05/23 14:35:58;;;;;;;5.75;4.57;;;;;;;;;;5053916;28;20021;-39
2022/05/23 14:38:28;;;;;;;6.32;4.10;;;;;;;;;;5053842;28;20029;-40
2022/05/23 14:40:56;;;;;;;7.60;4.53;;;;;;;;;;5053864;28;20065;-40
2022/05/23 14:43:33;;;;;;;7.93;4.90;;;;;;;;;;5053861;28;20098;-40
2022/05/23 14:46:01;;;;;;;6.88;4.72;;;;;;;;;;5053767;28;20083;-40
2022/05/23 14:48:28;;;;;;;6.55;4.82;;;;;;;;;;5053948;28;20029;-40
2022/05/23 14:51:10;;;;;;;8.48;4.60;;;;;;;;;;5053924;28;20391;-40
2022/05/23 14:56:27;;;;;;;7.55;4.85;;;;;;;;;;5053557;28;20045;-40
2022/05/23 15:01:41;;;;;;;5.10;4.25;;;;;;;;;;5053744;28;20033;-40
2022/05/23 15:04:08;;;;;;;5.93;4.05;;;;;;;;;;5053263;28;20029;-40
2022/05/23 15:06:33;;;;;;;7.30;4.43;;;;;;;;;;5053548;28;20052;-40
2022/05/23 15:08:59;;;;;;;5.20;4.47;;;;;;;;;;5053284;28;20052;-40
2022/05/23 15:11:30;;;;;;;6.47;4.82;;;;;;;;;;5053160;28;20503;-40
2022/05/23 15:14:00;;;;;;;7.10;5.15;;;;;;;;;;5053135;28;20063;-40
2022/05/23 15:16:27;;;;;;;6.03;5.43;;;;;;;;;;5053303;28;20395;-40
2022/05/23 15:19:01;;;;;;;6.20;4.72;;;;;;;;;;5053427;28;20071;-39
2022/05/23 15:21:27;;;;;;;5.78;4.15;;;;;;;;;;5053018;28;20147;-40
2022/05/23 15:23:53;;;;;;;8.50;5.32;;;;;;;;;;5053098;28;20549;-40
2022/05/23 15:26:22;;;;;;;7.07;5.00;;;;;;;;;;5052963;28;20028;-40
2022/05/23 15:28:50;;;;;;;6.82;5.22;;;;;;;;;;5052021;28;20021;-40
2022/05/23 15:31:16;;;;;;;8.65;4.78;;;;;;;;;;5052914;28;20466;-40
2022/05/23 15:33:42;;;;;;;5.53;4.63;;;;;;;;;;5053156;28;20383;-40
2022/05/23 15:36:08;;;;;;;8.00;4.25;;;;;;;;;;5052768;28;20037;-40
2022/05/23 15:38:33;;;;;;;5.93;4.35;;;;;;;;;;5051506;28;20025;-39
2022/05/23 15:40:59;;;;;;;5.80;5.25;;;;;;;;;;5051818;28;20033;-40
2022/05/23 15:43:24;;;;;;;7.68;4.80;;;;;;;;;;5052680;28;20036;-40
2022/05/23 15:45:52;;;;;;;9.70;4.97;;;;;;;;;;5052872;28;20028;-40
2022/05/23 15:48:27;;;;;;;5.53;4.30;;;;;;;;;;5052584;28;20016;-40
2022/05/23 15:50:52;;;;;;;4.97;3.95;;;;;;;;;;5052674;28;20104;-40
2022/05/23 15:53:18;;;;;;;4.22;3.65;;;;;;;;;;5052534;28;20378;-40
2022/05/23 15:55:49;;;;;;;5.00;4.53;;;;;;;;;;5052511;28;20028;-40
2022/05/23 15:58:16;;;;;;;5.18;4.00;;;;;;;;;;5052181;28;20072;-40
2022/05/23 16:00:42;;;;;;;7.43;3.75;;;;;;;;;;5052429;28;20056;-40
2022/05/23 16:03:08;;;;;;;6.78;4.00;;;;;;;;;;5050892;28;20033;-40
2022/05/23 16:05:34;;;;;;;4.90;4.28;;;;;;;;;;5052339;28;20062;-40
2022/05/23 16:08:01;;;;;;;6.45;4.00;;;;;;;;;;5052172;28;20116;-40
2022/05/23 16:10:27;;;;;;;6.80;4.43;;;;;;;;;;5051632;28;20359;-40
2022/05/23 16:12:59;;;;;;;6.20;4.57;;;;;;;;;;5051939;28;20051;-40
2022/05/23 16:15:25;;;;;;;5.15;4.10;;;;;;;;;;5052040;28;20029;-40